Time;durP1;ratioP1;P1;durP2;ratioP2;P2;SDS_P1;SDS_P2;PMS_P1;PMS_P2;Temp;Humidity;BMP_temperature;BMP_pressure;BME280_temperature;BME280_humidity;BME280_pressure;Samples;Min_cycle;Max_cycle;Signal;HPM_P1;HPM_P2
2022/04/15 00:00:23;;;;;;;11.23;9.00;;;;;;;;;;5053158;28;20203;-74
2022/04/15 00:02:53;;;;;;;12.80;10.07;;;;;;;;;;5052573;28;20222;-73
2022/04/15 00:05:34;;;;;;;13.63;9.80;;;;;;;;;;5053412;28;20215;-76
2022/04/15 00:08:03;;;;;;;13.40;10.73;;;;;;;;;;5053107;28;20229;-75
2022/04/15 00:10:32;;;;;;;15.10;11.53;;;;;;;;;;5053255;28;20674;-73
2022/04/15 00:13:01;;;;;;;15.27;12.67;;;;;;;;;;5052575;28;20249;-74
2022/04/15 00:15:30;;;;;;;17.57;13.67;;;;;;;;;;5050568;28;20256;-74
2022/04/15 00:18:00;;;;;;;17.60;13.70;;;;;;;;;;5052152;28;20223;-73
2022/04/15 00:20:29;;;;;;;18.80;14.77;;;;;;;;;;5053050;28;20207;-76
2022/04/15 00:22:58;;;;;;;18.90;14.90;;;;;;;;;;5052583;28;20249;-74
2022/04/15 00:25:28;;;;;;;18.10;13.93;;;;;;;;;;5050109;28;20199;-74
2022/04/15 00:27:56;;;;;;;18.50;13.17;;;;;;;;;;5044435;28;20227;-74
2022/04/15 00:30:25;;;;;;;14.77;11.97;;;;;;;;;;5036763;28;20199;-74
2022/04/15 00:32:53;;;;;;;13.20;11.63;;;;;;;;;;5051960;28;20226;-75
2022/04/15 00:35:23;;;;;;;14.77;12.13;;;;;;;;;;5051800;28;20268;-74
2022/04/15 00:37:52;;;;;;;17.17;11.80;;;;;;;;;;5052715;28;20229;-75
2022/04/15 00:40:20;;;;;;;12.70;11.30;;;;;;;;;;5051338;28;20639;-75
2022/04/15 00:46:28;;;;;;;15.30;12.60;;;;;;;;;;5053688;28;20166;-74
2022/04/15 00:48:56;;;;;;;17.10;12.23;;;;;;;;;;5052713;28;20248;-76
2022/04/15 00:51:31;;;;;;;14.20;11.17;;;;;;;;;;5053145;28;20191;-73
2022/04/15 00:54:00;;;;;;;14.53;11.87;;;;;;;;;;5052834;28;20230;-76
2022/04/15 00:56:29;;;;;;;14.23;10.70;;;;;;;;;;5051435;28;20212;-74
2022/04/15 00:58:59;;;;;;;12.97;10.10;;;;;;;;;;5053148;28;20260;-73
2022/04/15 01:01:28;;;;;;;10.53;9.50;;;;;;;;;;5053091;28;20207;-74
2022/04/15 01:03:58;;;;;;;10.43;8.90;;;;;;;;;;5050584;28;20199;-75
2022/04/15 01:06:30;;;;;;;11.97;9.53;;;;;;;;;;5049585;28;20209;-75
2022/04/15 01:09:01;;;;;;;10.67;9.03;;;;;;;;;;5051391;28;20203;-73
2022/04/15 01:11:30;;;;;;;10.47;8.70;;;;;;;;;;5051160;28;20543;-74
2022/04/15 01:14:00;;;;;;;9.13;8.07;;;;;;;;;;5052608;28;20222;-76
2022/04/15 01:16:30;;;;;;;10.33;8.37;;;;;;;;;;5051482;28;20207;-74
2022/04/15 01:18:59;;;;;;;9.63;7.20;;;;;;;;;;5051590;28;20206;-73
2022/04/15 01:21:29;;;;;;;8.37;7.27;;;;;;;;;;5052238;28;20203;-76
2022/04/15 01:23:59;;;;;;;10.80;7.43;;;;;;;;;;5051656;28;20194;-75
2022/04/15 01:26:27;;;;;;;7.70;6.97;;;;;;;;;;5051449;28;20252;-75
2022/04/15 01:28:57;;;;;;;8.47;7.23;;;;;;;;;;5050549;28;20598;-75
2022/04/15 01:31:31;;;;;;;9.13;7.07;;;;;;;;;;5052062;28;20202;-75
2022/04/15 01:34:00;;;;;;;10.20;7.47;;;;;;;;;;5052015;28;20297;-74
2022/04/15 01:36:28;;;;;;;9.60;7.70;;;;;;;;;;5051751;28;20188;-73
2022/04/15 01:39:00;;;;;;;10.63;7.70;;;;;;;;;;5051446;28;20254;-74
2022/04/15 01:41:28;;;;;;;9.23;7.50;;;;;;;;;;5051579;28;20198;-74
2022/04/15 01:43:57;;;;;;;9.90;7.23;;;;;;;;;;5051067;28;20572;-76
2022/04/15 01:46:25;;;;;;;8.50;7.53;;;;;;;;;;5046114;28;20260;-73
2022/04/15 01:48:54;;;;;;;10.10;7.80;;;;;;;;;;5051520;28;20261;-76
2022/04/15 01:51:22;;;;;;;9.10;7.70;;;;;;;;;;5051663;28;20203;-74
2022/04/15 01:53:53;;;;;;;8.83;7.13;;;;;;;;;;5051821;28;20639;-75
2022/04/15 01:56:23;;;;;;;9.30;8.00;;;;;;;;;;5040103;28;20200;-75
2022/04/15 01:58:51;;;;;;;10.27;8.20;;;;;;;;;;5045512;28;20264;-73
2022/04/15 02:01:19;;;;;;;11.67;8.30;;;;;;;;;;5049866;28;20207;-75
2022/04/15 02:03:48;;;;;;;12.07;8.93;;;;;;;;;;5051253;28;20237;-73
2022/04/15 02:06:17;;;;;;;9.77;8.77;;;;;;;;;;5047522;28;20206;-73
2022/04/15 02:08:45;;;;;;;10.60;8.80;;;;;;;;;;5051367;28;20206;-73
2022/04/15 02:11:14;;;;;;;11.10;8.23;;;;;;;;;;5051899;28;20220;-73
2022/04/15 02:13:43;;;;;;;10.60;8.60;;;;;;;;;;5051958;28;20208;-75
2022/04/15 02:19:34;;;;;;;9.87;8.63;;;;;;;;;;5050525;28;20186;-73
2022/04/15 02:22:02;;;;;;;12.40;8.47;;;;;;;;;;5055474;28;20203;-73
2022/04/15 02:24:31;;;;;;;13.30;8.70;;;;;;;;;;5055866;28;20259;-74
2022/04/15 02:26:59;;;;;;;10.10;8.90;;;;;;;;;;5055275;28;20597;-73
2022/04/15 02:29:29;;;;;;;10.23;8.63;;;;;;;;;;5054686;28;20204;-73
2022/04/15 02:31:57;;;;;;;14.27;9.47;;;;;;;;;;5054096;28;20199;-73
2022/04/15 02:34:26;;;;;;;10.40;9.30;;;;;;;;;;5034979;28;20232;-74
2022/04/15 02:36:54;;;;;;;12.17;8.40;;;;;;;;;;5048115;28;20643;-73
2022/04/15 02:39:23;;;;;;;13.80;8.77;;;;;;;;;;5054570;28;20262;-75
2022/04/15 02:41:52;;;;;;;11.03;8.97;;;;;;;;;;5054335;28;20580;-75
2022/04/15 02:44:20;;;;;;;11.33;8.53;;;;;;;;;;5055810;28;20210;-75
2022/04/15 02:46:51;;;;;;;12.93;8.27;;;;;;;;;;5053926;28;20223;-73
2022/04/15 02:49:20;;;;;;;11.90;7.87;;;;;;;;;;5054996;28;20198;-74
2022/04/15 02:51:48;;;;;;;11.53;7.50;;;;;;;;;;5043899;28;20253;-74
2022/04/15 02:54:17;;;;;;;7.60;6.63;;;;;;;;;;5042325;28;20219;-73
2022/04/15 02:56:45;;;;;;;10.37;7.67;;;;;;;;;;5053051;28;20269;-75
2022/04/15 02:59:16;;;;;;;8.53;7.10;;;;;;;;;;5053009;28;20217;-74
2022/04/15 03:01:46;;;;;;;9.57;6.50;;;;;;;;;;5054676;28;20210;-74
2022/04/15 03:04:15;;;;;;;10.30;6.93;;;;;;;;;;5054213;28;20651;-73
2022/04/15 03:06:45;;;;;;;10.80;7.00;;;;;;;;;;5054303;28;20223;-74
2022/04/15 03:09:13;;;;;;;8.93;6.40;;;;;;;;;;5044191;28;20202;-74
2022/04/15 03:11:42;;;;;;;8.97;6.40;;;;;;;;;;5055296;28;20206;-75
2022/04/15 03:14:11;;;;;;;7.93;6.60;;;;;;;;;;5040682;28;20273;-74
2022/04/15 03:16:39;;;;;;;9.00;7.60;;;;;;;;;;5054041;28;20218;-74
2022/04/15 03:19:08;;;;;;;8.40;7.27;;;;;;;;;;5034508;28;20283;-74
2022/04/15 03:21:38;;;;;;;10.10;7.63;;;;;;;;;;5034822;28;20207;-75
2022/04/15 03:24:07;;;;;;;8.10;7.30;;;;;;;;;;5049289;28;20651;-73
2022/04/15 03:26:36;;;;;;;8.00;7.20;;;;;;;;;;5053407;28;20716;-76
2022/04/15 03:29:05;;;;;;;9.30;8.40;;;;;;;;;;5038755;28;20207;-75
2022/04/15 03:31:34;;;;;;;7.57;6.73;;;;;;;;;;5036179;28;20206;-73
2022/04/15 03:34:02;;;;;;;8.60;6.50;;;;;;;;;;5053856;28;20698;-74
2022/04/15 03:36:40;;;;;;;7.23;6.13;;;;;;;;;;5053913;28;20211;-73
2022/04/15 03:39:08;;;;;;;7.73;5.90;;;;;;;;;;5036985;28;20598;-75
2022/04/15 03:41:37;;;;;;;8.00;6.10;;;;;;;;;;5033876;28;20246;-74
2022/04/15 03:44:06;;;;;;;6.07;5.47;;;;;;;;;;5036173;28;20281;-74
2022/04/15 03:46:34;;;;;;;8.23;6.23;;;;;;;;;;5054486;28;20622;-75
2022/04/15 03:49:03;;;;;;;6.87;5.97;;;;;;;;;;5054134;28;20207;-73
2022/04/15 03:51:31;;;;;;;7.07;5.60;;;;;;;;;;5053688;28;20211;-74
2022/04/15 03:54:01;;;;;;;6.87;6.10;;;;;;;;;;5052676;28;20207;-76
2022/04/15 03:56:30;;;;;;;7.40;5.87;;;;;;;;;;5053325;28;20602;-76
2022/04/15 03:58:59;;;;;;;5.83;5.13;;;;;;;;;;5053560;28;20688;-75
2022/04/15 04:01:27;;;;;;;6.10;5.60;;;;;;;;;;5053090;28;20257;-76
2022/04/15 04:03:56;;;;;;;6.83;5.47;;;;;;;;;;5052215;28;20199;-74
2022/04/15 04:06:25;;;;;;;8.30;5.83;;;;;;;;;;5052463;28;20206;-75
2022/04/15 04:08:53;;;;;;;6.37;5.77;;;;;;;;;;5053674;28;20210;-74
2022/04/15 04:11:23;;;;;;;6.60;5.90;;;;;;;;;;5053191;28;20207;-73
2022/04/15 04:13:52;;;;;;;9.10;6.73;;;;;;;;;;5053229;28;20202;-74
2022/04/15 04:16:20;;;;;;;7.33;6.20;;;;;;;;;;5053036;28;20203;-76
2022/04/15 04:18:49;;;;;;;9.37;6.97;;;;;;;;;;5052394;28;20203;-75
2022/04/15 04:21:19;;;;;;;6.83;6.10;;;;;;;;;;5034074;28;20258;-75
2022/04/15 04:23:48;;;;;;;7.33;5.53;;;;;;;;;;5038566;28;20203;-74
2022/04/15 04:26:17;;;;;;;8.90;6.00;;;;;;;;;;5053087;28;20191;-74
2022/04/15 04:28:47;;;;;;;8.27;6.30;;;;;;;;;;5053110;28;20268;-75
2022/04/15 04:31:17;;;;;;;7.13;6.43;;;;;;;;;;5051874;28;20203;-75
2022/04/15 04:33:45;;;;;;;7.13;6.43;;;;;;;;;;5053537;28;20199;-74
2022/04/15 04:36:13;;;;;;;8.00;6.40;;;;;;;;;;5053313;28;20219;-73
2022/04/15 04:39:01;;;;;;;7.53;6.13;;;;;;;;;;5052895;28;20277;-75
2022/04/15 04:41:30;;;;;;;7.60;5.53;;;;;;;;;;5053655;28;20210;-74
2022/04/15 04:44:00;;;;;;;7.37;6.20;;;;;;;;;;5051813;28;20203;-73
2022/04/15 04:46:29;;;;;;;7.03;6.23;;;;;;;;;;5052300;28;20206;-75
2022/04/15 04:48:57;;;;;;;6.67;5.53;;;;;;;;;;5052126;28;20226;-75
2022/04/15 04:51:26;;;;;;;6.57;5.70;;;;;;;;;;5052475;28;20674;-74
2022/04/15 04:53:55;;;;;;;6.70;6.00;;;;;;;;;;5052570;28;20248;-73
2022/04/15 04:56:29;;;;;;;8.37;6.00;;;;;;;;;;5050525;28;20558;-75
2022/04/15 04:59:00;;;;;;;7.10;6.40;;;;;;;;;;5053183;28;20199;-74
2022/04/15 05:01:28;;;;;;;7.30;6.07;;;;;;;;;;5052872;28;20206;-74
2022/04/15 05:03:57;;;;;;;7.57;6.10;;;;;;;;;;5051819;28;20345;-75
2022/04/15 05:06:25;;;;;;;7.57;6.10;;;;;;;;;;5051106;28;20199;-75
2022/04/15 05:08:54;;;;;;;6.80;6.10;;;;;;;;;;5051718;28;20207;-74
2022/04/15 05:11:22;;;;;;;6.90;6.20;;;;;;;;;;5052792;28;20198;-73
2022/04/15 05:13:51;;;;;;;7.50;6.30;;;;;;;;;;5047689;28;20256;-72
2022/04/15 05:16:20;;;;;;;7.60;6.53;;;;;;;;;;5052148;28;20740;-73
2022/04/15 05:18:49;;;;;;;7.17;6.47;;;;;;;;;;5046942;28;20295;-75
2022/04/15 05:21:18;;;;;;;6.53;6.00;;;;;;;;;;5042031;28;20257;-74
2022/04/15 05:23:46;;;;;;;8.23;6.37;;;;;;;;;;5045110;28;20211;-75
2022/04/15 05:26:15;;;;;;;7.63;6.20;;;;;;;;;;5042022;28;20195;-75
2022/04/15 05:28:44;;;;;;;6.70;6.00;;;;;;;;;;5037920;28;20256;-74
2022/04/15 05:31:13;;;;;;;7.70;6.67;;;;;;;;;;5042854;28;20340;-75
2022/04/15 05:33:43;;;;;;;8.93;6.40;;;;;;;;;;5042807;28;20685;-75
2022/04/15 05:36:11;;;;;;;8.90;6.53;;;;;;;;;;5043074;28;20228;-76
2022/04/15 05:38:40;;;;;;;8.43;6.60;;;;;;;;;;5040651;28;20470;-73
2022/04/15 05:41:12;;;;;;;7.60;6.90;;;;;;;;;;5048137;28;20662;-73
2022/04/15 05:43:42;;;;;;;10.33;8.00;;;;;;;;;;5052010;28;20215;-74
2022/04/15 05:46:11;;;;;;;11.00;7.87;;;;;;;;;;5050802;28;20659;-74
2022/04/15 05:48:40;;;;;;;8.30;7.50;;;;;;;;;;5047742;28;20245;-74
2022/04/15 05:51:10;;;;;;;9.87;7.70;;;;;;;;;;5052429;28;20199;-75
2022/04/15 05:53:38;;;;;;;8.57;7.70;;;;;;;;;;5055382;28;20202;-76
2022/04/15 05:56:07;;;;;;;9.17;7.83;;;;;;;;;;5054797;28;20215;-75
2022/04/15 05:58:35;;;;;;;9.90;8.50;;;;;;;;;;5043695;28;20277;-76
2022/04/15 06:01:05;;;;;;;9.90;8.13;;;;;;;;;;5049579;28;20246;-74
2022/04/15 06:03:34;;;;;;;10.43;8.27;;;;;;;;;;5055320;28;20207;-76
2022/04/15 06:06:04;;;;;;;10.10;8.43;;;;;;;;;;5043341;28;20196;-74
2022/04/15 06:08:34;;;;;;;9.07;8.17;;;;;;;;;;5051448;28;20227;-75
2022/04/15 06:11:02;;;;;;;11.20;9.10;;;;;;;;;;5045077;28;20705;-74
2022/04/15 06:13:34;;;;;;;12.27;9.43;;;;;;;;;;5042306;28;20219;-73
2022/04/15 06:16:02;;;;;;;12.40;10.07;;;;;;;;;;5041035;28;20230;-73
2022/04/15 06:18:34;;;;;;;11.87;9.67;;;;;;;;;;5056475;28;20234;-74
2022/04/15 06:21:03;;;;;;;11.43;10.23;;;;;;;;;;5055338;28;20193;-75
2022/04/15 06:23:32;;;;;;;12.40;11.07;;;;;;;;;;5055429;28;20692;-75
2022/04/15 06:26:01;;;;;;;13.73;11.07;;;;;;;;;;5055590;28;20602;-74
2022/04/15 06:28:30;;;;;;;13.10;10.60;;;;;;;;;;5044198;28;20278;-73
2022/04/15 06:30:59;;;;;;;12.50;11.03;;;;;;;;;;5049111;28;20241;-74
2022/04/15 06:33:27;;;;;;;13.23;11.83;;;;;;;;;;5054732;28;20246;-75
2022/04/15 06:35:56;;;;;;;12.63;10.20;;;;;;;;;;5054777;28;20215;-74
2022/04/15 06:38:24;;;;;;;12.73;11.20;;;;;;;;;;5053374;28;20285;-74
2022/04/15 06:40:53;;;;;;;12.33;10.30;;;;;;;;;;5054847;28;20217;-75
2022/04/15 06:43:23;;;;;;;11.60;9.27;;;;;;;;;;5053151;28;20203;-75
2022/04/15 06:45:51;;;;;;;12.50;10.47;;;;;;;;;;5053828;28;20199;-73
2022/04/15 06:48:20;;;;;;;10.97;8.90;;;;;;;;;;5052830;28;20325;-74
2022/04/15 06:50:49;;;;;;;11.20;9.40;;;;;;;;;;5049195;28;20199;-74
2022/04/15 06:53:17;;;;;;;11.30;9.27;;;;;;;;;;5073398;28;20198;-74
2022/04/15 06:55:46;;;;;;;11.47;9.30;;;;;;;;;;5040048;28;20219;-75
2022/04/15 06:58:14;;;;;;;11.47;9.07;;;;;;;;;;5044564;28;20219;-73
2022/04/15 07:00:45;;;;;;;9.57;8.67;;;;;;;;;;5050172;28;20200;-74
2022/04/15 07:03:14;;;;;;;11.70;8.73;;;;;;;;;;5042543;28;20231;-74
2022/04/15 07:05:43;;;;;;;10.03;8.40;;;;;;;;;;5041200;28;20606;-73
2022/04/15 07:08:12;;;;;;;11.60;8.60;;;;;;;;;;5054180;28;20235;-73
2022/04/15 07:10:41;;;;;;;9.00;8.10;;;;;;;;;;5052860;28;20215;-73
2022/04/15 07:13:10;;;;;;;11.07;9.00;;;;;;;;;;5053593;28;20257;-74
2022/04/15 07:15:39;;;;;;;10.37;8.17;;;;;;;;;;5054566;28;20211;-74
2022/04/15 07:18:09;;;;;;;8.60;7.70;;;;;;;;;;5053036;28;20227;-74
2022/04/15 07:20:37;;;;;;;7.57;6.77;;;;;;;;;;5053570;28;20215;-73
2022/04/15 07:23:06;;;;;;;8.03;6.73;;;;;;;;;;5052741;28;20203;-76
2022/04/15 07:25:35;;;;;;;7.90;7.07;;;;;;;;;;5037053;28;20253;-74
2022/04/15 07:28:03;;;;;;;9.53;6.97;;;;;;;;;;5053184;28;20219;-73
2022/04/15 07:30:33;;;;;;;8.00;6.70;;;;;;;;;;5050619;28;20196;-73
2022/04/15 07:33:02;;;;;;;8.43;6.97;;;;;;;;;;5053708;28;20203;-73
2022/04/15 07:35:32;;;;;;;8.10;7.10;;;;;;;;;;5052977;28;20238;-74
2022/04/15 07:38:03;;;;;;;7.87;6.83;;;;;;;;;;5053815;28;20310;-73
2022/04/15 07:40:33;;;;;;;9.17;7.30;;;;;;;;;;5044280;28;20218;-74
2022/04/15 07:43:01;;;;;;;7.23;6.50;;;;;;;;;;5052787;28;20199;-75
2022/04/15 07:45:30;;;;;;;8.57;6.70;;;;;;;;;;5041138;28;20230;-74
2022/04/15 07:48:01;;;;;;;8.33;6.77;;;;;;;;;;5037773;28;20219;-74
2022/04/15 07:50:31;;;;;;;7.23;6.30;;;;;;;;;;5047862;28;20266;-73
2022/04/15 07:53:01;;;;;;;7.33;6.53;;;;;;;;;;5038541;28;20655;-74
2022/04/15 07:55:31;;;;;;;9.33;6.47;;;;;;;;;;5049332;28;20234;-75
2022/04/15 07:58:00;;;;;;;6.67;6.07;;;;;;;;;;5046160;28;20227;-74
2022/04/15 08:00:34;;;;;;;6.40;5.80;;;;;;;;;;5051761;28;20623;-73
2022/04/15 08:03:03;;;;;;;7.37;6.63;;;;;;;;;;5047308;28;20679;-74
2022/04/15 08:05:33;;;;;;;7.57;6.87;;;;;;;;;;5053425;28;20245;-74
2022/04/15 08:08:01;;;;;;;8.83;6.43;;;;;;;;;;5052328;28;20273;-74
2022/04/15 08:10:30;;;;;;;7.50;6.00;;;;;;;;;;5054436;28;20188;-75
2022/04/15 08:12:59;;;;;;;7.47;6.70;;;;;;;;;;5053930;28;20210;-73
2022/04/15 08:15:27;;;;;;;7.33;6.60;;;;;;;;;;5053534;28;20203;-74
2022/04/15 08:17:56;;;;;;;6.90;6.30;;;;;;;;;;5036719;28;20227;-74
2022/04/15 08:20:24;;;;;;;8.00;6.57;;;;;;;;;;5049886;28;20272;-76
2022/04/15 08:22:54;;;;;;;7.17;6.43;;;;;;;;;;5053024;28;20650;-74
2022/04/15 08:28:52;;;;;;;6.57;5.87;;;;;;;;;;5049364;28;20658;-74
2022/04/15 08:31:21;;;;;;;6.43;5.83;;;;;;;;;;5048557;28;20211;-75
2022/04/15 08:33:49;;;;;;;6.67;5.97;;;;;;;;;;5053332;28;20198;-74
2022/04/15 08:36:18;;;;;;;7.07;5.77;;;;;;;;;;5045800;28;20257;-73
2022/04/15 08:38:48;;;;;;;7.53;5.93;;;;;;;;;;5046258;28;20245;-74
2022/04/15 08:41:16;;;;;;;5.70;5.20;;;;;;;;;;5049551;28;20813;-75
2022/04/15 08:43:46;;;;;;;6.87;6.13;;;;;;;;;;5044238;28;20203;-74
2022/04/15 08:46:21;;;;;;;10.20;6.23;;;;;;;;;;5050128;28;20203;-75
2022/04/15 08:48:51;;;;;;;7.13;6.07;;;;;;;;;;5032502;28;20207;-75
2022/04/15 08:51:20;;;;;;;7.10;6.40;;;;;;;;;;5044424;28;20333;-75
2022/04/15 08:53:54;;;;;;;7.03;6.40;;;;;;;;;;5038649;28;20204;-73
2022/04/15 08:56:25;;;;;;;7.20;6.50;;;;;;;;;;5041213;28;20215;-76
2022/04/15 08:59:05;;;;;;;6.03;5.03;;;;;;;;;;5047092;28;20191;-75
2022/04/15 09:01:35;;;;;;;6.40;5.80;;;;;;;;;;5039682;28;20705;-75
2022/04/15 09:04:04;;;;;;;8.83;7.80;;;;;;;;;;5041753;28;20207;-75
2022/04/15 09:06:34;;;;;;;7.87;7.07;;;;;;;;;;5041100;28;20214;-74
2022/04/15 09:09:06;;;;;;;6.67;5.97;;;;;;;;;;5046034;28;20274;-75
2022/04/15 09:11:36;;;;;;;5.87;5.13;;;;;;;;;;5048314;28;20204;-75
2022/04/15 09:14:10;;;;;;;5.90;5.30;;;;;;;;;;5047932;28;20222;-75
2022/04/15 09:16:40;;;;;;;5.40;4.90;;;;;;;;;;5042560;28;20615;-74
2022/04/15 09:19:10;;;;;;;5.87;4.83;;;;;;;;;;5050896;28;20252;-74
2022/04/15 09:21:39;;;;;;;8.13;6.20;;;;;;;;;;5049724;28;20218;-76
2022/04/15 09:24:12;;;;;;;5.93;4.80;;;;;;;;;;5051211;28;20234;-74
2022/04/15 09:26:44;;;;;;;5.47;4.70;;;;;;;;;;5035633;28;20698;-74
2022/04/15 09:29:14;;;;;;;5.90;4.67;;;;;;;;;;5055787;28;20214;-75
2022/04/15 09:31:48;;;;;;;4.80;4.33;;;;;;;;;;5050656;28;20209;-74
2022/04/15 09:34:17;;;;;;;5.83;5.20;;;;;;;;;;5049813;28;20291;-74
2022/04/15 09:36:48;;;;;;;6.13;4.83;;;;;;;;;;5054766;28;20357;-75
2022/04/15 09:39:19;;;;;;;5.60;5.00;;;;;;;;;;5050993;28;20231;-75
2022/04/15 09:41:52;;;;;;;5.20;4.70;;;;;;;;;;5053536;28;20560;-75
2022/04/15 09:44:22;;;;;;;4.60;4.20;;;;;;;;;;5053202;28;20722;-74
2022/04/15 09:46:53;;;;;;;5.00;4.43;;;;;;;;;;5043849;28;20753;-76
2022/04/15 09:49:26;;;;;;;4.90;4.20;;;;;;;;;;5042303;28;20191;-74
2022/04/15 09:51:56;;;;;;;5.57;4.87;;;;;;;;;;5046578;28;20214;-76
2022/04/15 09:54:27;;;;;;;5.47;4.37;;;;;;;;;;5049071;28;20266;-74
2022/04/15 09:56:58;;;;;;;5.33;4.60;;;;;;;;;;5047256;28;20679;-74
2022/04/15 09:59:28;;;;;;;5.20;4.47;;;;;;;;;;5052620;28;20241;-74
2022/04/15 10:01:58;;;;;;;5.03;4.53;;;;;;;;;;5024261;28;20206;-76
2022/04/15 10:04:28;;;;;;;5.77;4.83;;;;;;;;;;5040405;28;20195;-74
2022/04/15 10:06:57;;;;;;;5.60;5.07;;;;;;;;;;5050349;28;20292;-75
2022/04/15 10:09:28;;;;;;;5.13;4.53;;;;;;;;;;5054695;28;20196;-74
2022/04/15 10:11:58;;;;;;;5.83;5.23;;;;;;;;;;5052439;28;20207;-76
2022/04/15 10:14:27;;;;;;;5.80;5.07;;;;;;;;;;5054010;28;20195;-74
2022/04/15 10:16:57;;;;;;;7.70;5.23;;;;;;;;;;5052814;28;20223;-74
2022/04/15 10:19:27;;;;;;;7.27;5.37;;;;;;;;;;5047563;28;20254;-74
2022/04/15 10:21:56;;;;;;;6.10;5.50;;;;;;;;;;5054616;28;20198;-75
2022/04/15 10:24:27;;;;;;;5.67;4.93;;;;;;;;;;5053418;28;20203;-75
2022/04/15 10:27:03;;;;;;;5.47;4.53;;;;;;;;;;5051037;28;20219;-76
2022/04/15 10:29:32;;;;;;;5.80;5.20;;;;;;;;;;5046904;28;20294;-74
2022/04/15 10:32:13;;;;;;;5.40;4.90;;;;;;;;;;5047156;28;20215;-75
2022/04/15 10:34:45;;;;;;;5.63;5.03;;;;;;;;;;5050298;28;20239;-76
2022/04/15 10:37:15;;;;;;;5.90;4.77;;;;;;;;;;5036288;28;20274;-76
2022/04/15 10:39:48;;;;;;;6.77;5.10;;;;;;;;;;5052338;28;20273;-75
2022/04/15 10:42:22;;;;;;;6.47;5.60;;;;;;;;;;5052929;28;20674;-75
2022/04/15 10:44:52;;;;;;;6.50;5.80;;;;;;;;;;5051803;28;20606;-76
2022/04/15 10:47:29;;;;;;;6.73;6.00;;;;;;;;;;5053066;28;20305;-74
2022/04/15 10:50:03;;;;;;;6.77;6.07;;;;;;;;;;5046528;28;20192;-76
2022/04/15 10:52:34;;;;;;;7.57;6.77;;;;;;;;;;5040996;28;20202;-75
2022/04/15 10:55:04;;;;;;;7.83;7.13;;;;;;;;;;5044043;28;20286;-74
2022/04/15 10:57:36;;;;;;;8.37;7.03;;;;;;;;;;5052690;28;20235;-74
2022/04/15 11:02:57;;;;;;;8.03;7.23;;;;;;;;;;5043260;28;20202;-76
2022/04/15 11:05:36;;;;;;;8.70;7.80;;;;;;;;;;5047079;28;20200;-75
2022/04/15 11:08:07;;;;;;;9.17;8.17;;;;;;;;;;5049363;28;20218;-74
2022/04/15 11:11:01;;;;;;;9.53;8.53;;;;;;;;;;5044869;28;20200;-74
2022/04/15 11:13:54;;;;;;;9.30;8.43;;;;;;;;;;5037766;28;20203;-73
2022/04/15 11:16:24;;;;;;;10.10;8.93;;;;;;;;;;5045229;28;20203;-76
2022/04/15 11:18:55;;;;;;;11.80;9.60;;;;;;;;;;5050437;28;20319;-76
2022/04/15 11:21:27;;;;;;;11.83;10.20;;;;;;;;;;5042942;28;20203;-74
2022/04/15 11:23:57;;;;;;;11.17;9.73;;;;;;;;;;5042358;28;20207;-74
2022/04/15 11:26:26;;;;;;;12.10;9.67;;;;;;;;;;5047849;28;20199;-74
2022/04/15 11:28:57;;;;;;;11.50;10.03;;;;;;;;;;5054487;28;20252;-74
2022/04/15 11:31:26;;;;;;;12.03;10.00;;;;;;;;;;5047624;28;20655;-74
2022/04/15 11:33:56;;;;;;;11.27;10.07;;;;;;;;;;5050169;28;20195;-75
2022/04/15 11:36:25;;;;;;;9.40;8.50;;;;;;;;;;5051357;28;20260;-74
2022/04/15 11:39:03;;;;;;;9.40;8.40;;;;;;;;;;5053056;28;20679;-74
2022/04/15 11:41:31;;;;;;;11.47;8.83;;;;;;;;;;5053679;28;20268;-75
2022/04/15 11:44:02;;;;;;;11.00;8.67;;;;;;;;;;5051152;28;20577;-73
2022/04/15 11:46:41;;;;;;;11.07;9.73;;;;;;;;;;5037307;28;20771;-73
2022/04/15 11:49:16;;;;;;;13.73;10.93;;;;;;;;;;5052636;28;20199;-75
2022/04/15 11:51:45;;;;;;;11.63;10.43;;;;;;;;;;5048632;28;20603;-75
2022/04/15 11:54:14;;;;;;;12.80;10.63;;;;;;;;;;5050561;28;20207;-74
2022/04/15 11:56:43;;;;;;;13.63;10.97;;;;;;;;;;5053233;28;20242;-75
2022/04/15 11:59:13;;;;;;;12.43;11.13;;;;;;;;;;5042274;28;20224;-75
2022/04/15 12:01:41;;;;;;;11.67;10.20;;;;;;;;;;5052499;28;20207;-76
2022/04/15 12:04:10;;;;;;;15.23;10.73;;;;;;;;;;5047141;28;20196;-73
2022/04/15 12:06:41;;;;;;;13.20;10.00;;;;;;;;;;5052317;28;20576;-75
2022/04/15 12:09:11;;;;;;;11.70;9.43;;;;;;;;;;5050998;28;20195;-75
2022/04/15 12:12:01;;;;;;;11.27;10.17;;;;;;;;;;5051646;28;20215;-75
2022/04/15 12:14:42;;;;;;;12.60;10.37;;;;;;;;;;5053593;28;20195;-75
2022/04/15 12:17:14;;;;;;;13.80;11.50;;;;;;;;;;5051494;28;20229;-74
2022/04/15 12:19:43;;;;;;;14.97;11.43;;;;;;;;;;5047070;28;20238;-74
2022/04/15 12:22:12;;;;;;;14.77;11.13;;;;;;;;;;5048936;28;20222;-74
2022/04/15 12:24:40;;;;;;;11.90;9.70;;;;;;;;;;5049910;28;20207;-74
2022/04/15 12:27:09;;;;;;;14.77;9.70;;;;;;;;;;5051365;28;20718;-74
2022/04/15 12:29:51;;;;;;;12.03;9.43;;;;;;;;;;5038208;28;20198;-76
2022/04/15 12:32:25;;;;;;;10.13;8.27;;;;;;;;;;5041773;28;20199;-74
2022/04/15 12:35:11;;;;;;;11.33;8.83;;;;;;;;;;5050557;28;20699;-74
2022/04/15 12:37:43;;;;;;;12.80;9.80;;;;;;;;;;5041075;28;20276;-73
2022/04/15 12:40:29;;;;;;;9.50;8.57;;;;;;;;;;4702233;28;9999909;-75
2022/04/15 12:43:08;;;;;;;9.90;8.40;;;;;;;;;;5040985;28;20574;-75
2022/04/15 12:45:48;;;;;;;9.47;8.37;;;;;;;;;;5042520;28;20211;-74
2022/04/15 12:48:18;;;;;;;9.73;8.03;;;;;;;;;;5041288;28;20227;-75
2022/04/15 12:50:47;;;;;;;8.53;7.67;;;;;;;;;;5044873;28;20255;-75
2022/04/15 12:53:16;;;;;;;8.33;7.13;;;;;;;;;;5044630;28;20257;-73
2022/04/15 12:55:46;;;;;;;11.43;7.30;;;;;;;;;;5042637;28;20267;-74
2022/04/15 12:58:19;;;;;;;8.13;7.00;;;;;;;;;;5046358;28;20309;-74
2022/04/15 13:00:51;;;;;;;9.30;7.27;;;;;;;;;;5048888;28;20273;-74
2022/04/15 13:03:22;;;;;;;11.63;8.40;;;;;;;;;;5052554;28;20738;-75
2022/04/15 13:05:53;;;;;;;9.27;8.13;;;;;;;;;;5048078;28;20253;-74
2022/04/15 13:08:21;;;;;;;11.73;8.50;;;;;;;;;;5045178;28;20223;-73
2022/04/15 13:10:51;;;;;;;11.67;8.83;;;;;;;;;;5048401;28;20206;-74
2022/04/15 13:13:35;;;;;;;13.57;9.87;;;;;;;;;;5049020;28;20230;-73
2022/04/15 13:16:04;;;;;;;9.60;8.60;;;;;;;;;;5042253;28;20199;-73
2022/04/15 13:18:35;;;;;;;10.50;8.60;;;;;;;;;;5042407;28;20227;-75
2022/04/15 13:21:05;;;;;;;8.97;8.07;;;;;;;;;;5049457;28;20222;-73
2022/04/15 13:23:34;;;;;;;8.63;7.73;;;;;;;;;;5048839;28;20721;-75
2022/04/15 13:26:02;;;;;;;10.40;8.53;;;;;;;;;;5036136;28;20281;-75
2022/04/15 13:28:32;;;;;;;10.90;8.17;;;;;;;;;;5048369;28;20261;-74
2022/04/15 13:31:01;;;;;;;9.30;8.10;;;;;;;;;;5047830;28;20211;-74
2022/04/15 13:33:32;;;;;;;8.40;7.50;;;;;;;;;;5038710;28;20207;-75
2022/04/15 13:36:02;;;;;;;8.87;7.70;;;;;;;;;;5042958;28;20574;-75
2022/04/15 13:38:30;;;;;;;10.50;8.30;;;;;;;;;;5043283;28;20226;-76
2022/04/15 13:40:59;;;;;;;11.00;8.03;;;;;;;;;;5049134;28;20273;-74
2022/04/15 13:43:27;;;;;;;10.73;8.23;;;;;;;;;;5045134;28;20214;-73
2022/04/15 13:45:56;;;;;;;8.33;7.50;;;;;;;;;;5048845;28;20207;-73
2022/04/15 13:48:25;;;;;;;8.87;7.97;;;;;;;;;;5044222;28;20222;-74
2022/04/15 13:50:54;;;;;;;10.20;8.23;;;;;;;;;;5046280;28;20203;-75
2022/04/15 13:58:56;;;;;;;10.30;8.13;;;;;;;;;;5040410;28;20195;-76
2022/04/15 14:01:26;;;;;;;9.33;8.40;;;;;;;;;;5039472;28;20896;-73
2022/04/15 14:03:55;;;;;;;9.33;8.33;;;;;;;;;;5043018;28;20658;-74
2022/04/15 14:06:24;;;;;;;9.77;8.67;;;;;;;;;;5049154;28;20571;-76
2022/04/15 14:08:54;;;;;;;9.17;7.90;;;;;;;;;;5048556;28;20207;-73
2022/04/15 14:11:23;;;;;;;8.83;7.90;;;;;;;;;;5045780;28;20195;-76
2022/04/15 14:13:51;;;;;;;9.23;8.23;;;;;;;;;;5053151;28;20199;-74
2022/04/15 14:16:20;;;;;;;13.30;9.10;;;;;;;;;;5053782;28;20663;-74
2022/04/15 14:18:50;;;;;;;10.40;8.80;;;;;;;;;;5041908;28;20227;-75
2022/04/15 14:21:30;;;;;;;10.07;9.03;;;;;;;;;;5053910;28;20241;-74
2022/04/15 14:24:15;;;;;;;10.43;9.07;;;;;;;;;;5055262;28;20191;-75
2022/04/15 14:26:46;;;;;;;11.20;8.90;;;;;;;;;;5053137;28;20223;-76
2022/04/15 14:29:15;;;;;;;10.93;9.33;;;;;;;;;;5046663;28;20206;-74
2022/04/15 14:31:43;;;;;;;12.27;9.10;;;;;;;;;;5038860;28;20249;-75
2022/04/15 14:34:12;;;;;;;10.63;9.53;;;;;;;;;;5052490;28;20207;-75
2022/04/15 14:36:40;;;;;;;14.27;9.63;;;;;;;;;;5052578;28;20219;-75
2022/04/15 14:39:09;;;;;;;11.83;9.10;;;;;;;;;;5056240;28;20203;-76
2022/04/15 14:41:37;;;;;;;10.47;8.63;;;;;;;;;;5048186;28;20245;-76
2022/04/15 14:44:07;;;;;;;11.47;9.03;;;;;;;;;;5052738;28;20253;-75
2022/04/15 14:46:36;;;;;;;12.80;8.87;;;;;;;;;;5052275;28;20544;-73
2022/04/15 14:49:04;;;;;;;9.80;8.80;;;;;;;;;;5053042;28;20207;-74
2022/04/15 14:51:34;;;;;;;10.20;9.20;;;;;;;;;;5045444;28;20204;-76
2022/04/15 14:54:02;;;;;;;10.87;9.60;;;;;;;;;;5039510;28;20253;-75
2022/04/15 14:56:30;;;;;;;11.83;9.40;;;;;;;;;;5048041;28;20203;-76
2022/04/15 14:58:59;;;;;;;13.97;9.87;;;;;;;;;;5054182;28;20203;-76
2022/04/15 15:01:29;;;;;;;11.57;9.93;;;;;;;;;;5059828;28;20227;-75
2022/04/15 15:03:57;;;;;;;12.57;10.27;;;;;;;;;;5049922;28;20203;-75
2022/04/15 15:06:26;;;;;;;11.70;9.10;;;;;;;;;;5054735;28;20199;-77
2022/04/15 15:08:54;;;;;;;12.50;9.80;;;;;;;;;;5054011;28;20210;-76
2022/04/15 15:11:24;;;;;;;11.73;9.20;;;;;;;;;;5044676;28;20192;-75